createdAt,value
2022-11-23T05:16:16.953Z,25.75
2022-11-23T05:19:20.210Z,21.37
2022-11-23T05:22:22.817Z,20.55
2022-11-23T05:25:26.037Z,21.23
2022-11-23T05:28:40.241Z,19.37
2022-11-23T05:31:43.963Z,21.37
2022-11-23T05:34:47.090Z,23.17
2022-11-23T05:37:50.682Z,18.30
2022-11-23T05:40:53.156Z,18.15
2022-11-23T05:43:56.649Z,18.48
2022-11-23T05:46:59.771Z,17.45
2022-11-23T05:50:03.823Z,18.48
2022-11-23T05:53:07.600Z,15.57
2022-11-23T05:56:10.453Z,16.08
2022-11-23T05:59:13.832Z,15.95
2022-11-23T06:02:17.522Z,16.27
2022-11-23T06:05:20.356Z,16.80
2022-11-23T06:08:23.297Z,14.93
2022-11-23T06:11:26.138Z,14.73
2022-11-23T06:14:30.123Z,13.85
2022-11-23T06:17:33.137Z,14.90
2022-11-23T06:20:36.545Z,15.63
2022-11-23T06:23:39.373Z,16.05
2022-11-23T06:26:42.203Z,16.58
2022-11-23T06:29:46.895Z,16.62
2022-11-23T06:32:49.533Z,14.57
2022-11-23T06:35:58.864Z,14.57
2022-11-23T06:39:01.803Z,14.70
2022-11-23T06:42:23.754Z,16.90
2022-11-23T06:45:28.088Z,16.42
2022-11-23T06:48:31.524Z,16.35
2022-11-23T06:51:34.324Z,15.13
2022-11-23T06:54:37.021Z,16.30
2022-11-23T06:57:39.475Z,16.33
2022-11-23T07:00:43.674Z,13.88
2022-11-23T07:03:46.800Z,15.68
2022-11-23T07:06:50.853Z,15.73
2022-11-23T07:09:57.572Z,17.25
2022-11-23T07:13:05.840Z,14.93
2022-11-23T07:16:08.480Z,13.98
2022-11-23T07:19:12.403Z,13.95
2022-11-23T07:22:14.869Z,14.98
2022-11-23T07:25:19.156Z,16.98
2022-11-23T07:28:21.748Z,11.93
2022-11-23T07:31:24.756Z,16.90
2022-11-23T07:34:30.468Z,12.63
2022-11-23T07:37:33.268Z,11.88
2022-11-23T07:40:37.629Z,13.48
2022-11-23T07:43:40.295Z,15.57
2022-11-23T07:46:42.987Z,13.40
2022-11-23T07:49:45.651Z,11.80
2022-11-23T07:52:48.548Z,12.43
2022-11-23T07:55:56.654Z,13.20
2022-11-23T07:58:59.340Z,15.13
2022-11-23T08:02:02.225Z,12.95
2022-11-23T08:05:07.751Z,12.00
2022-11-23T08:08:13.870Z,13.00
2022-11-23T08:11:18.700Z,15.68
2022-11-23T08:14:21.208Z,13.38
2022-11-23T08:17:23.916Z,15.60
2022-11-23T08:20:28.367Z,12.32
2022-11-23T08:23:31.173Z,12.43
2022-11-23T08:26:33.737Z,11.18
2022-11-23T08:29:36.425Z,14.98
2022-11-23T08:32:38.851Z,14.32
2022-11-23T08:35:43.023Z,11.40
2022-11-23T08:38:45.476Z,12.15
2022-11-23T08:41:48.855Z,10.88
2022-11-23T08:44:51.300Z,9.80
2022-11-23T08:47:55.736Z,12.30
2022-11-23T08:51:00.455Z,10.85
2022-11-23T08:54:03.326Z,12.32
2022-11-23T08:57:05.735Z,11.12
2022-11-23T09:00:09.071Z,9.90
2022-11-23T09:03:11.552Z,12.68
2022-11-23T09:06:14.316Z,11.18
2022-11-23T09:09:17.063Z,10.35
2022-11-23T09:12:19.791Z,11.73
2022-11-23T09:15:22.433Z,9.07
2022-11-23T09:18:26.177Z,9.43
2022-11-23T09:21:33.288Z,10.25
2022-11-23T09:24:36.412Z,11.50
2022-11-23T09:27:39.036Z,9.30
2022-11-23T09:30:42.870Z,11.90
2022-11-23T09:33:45.380Z,12.57
2022-11-23T09:36:48.227Z,10.48
2022-11-23T09:39:50.703Z,13.15
2022-11-23T09:43:22.808Z,14.15
2022-11-23T09:46:37.318Z,12.30
2022-11-23T09:49:59.859Z,12.75
2022-11-23T09:53:10.331Z,11.77
2022-11-23T09:56:27.363Z,10.43
2022-11-23T09:59:29.787Z,12.60
2022-11-23T10:02:39.231Z,10.88
2022-11-23T10:05:48.095Z,10.35
2022-11-23T10:09:18.848Z,11.02
2022-11-23T10:12:45.575Z,10.02
2022-11-23T10:16:03.202Z,7.97
2022-11-23T10:19:17.263Z,9.48
2022-11-23T10:22:33.674Z,8.10
2022-11-23T10:25:56.714Z,8.70
2022-11-23T10:29:11.404Z,8.95
2022-11-23T10:32:31.040Z,8.82
2022-11-23T10:35:35.297Z,8.60
2022-11-23T10:38:37.962Z,7.45
2022-11-23T10:41:42.688Z,7.70
2022-11-23T10:44:47.225Z,8.30
2022-11-23T10:47:52.815Z,10.30
2022-11-23T10:51:14.561Z,8.07
2022-11-23T10:54:27.797Z,7.15
2022-11-23T10:57:31.976Z,7.45
2022-11-23T11:00:34.602Z,7.32
2022-11-23T11:03:37.377Z,7.53
2022-11-23T11:06:39.846Z,9.18
2022-11-23T11:09:42.667Z,10.05
2022-11-23T11:12:52.161Z,9.15
2022-11-23T11:16:04.025Z,9.63
2022-11-23T11:19:25.497Z,12.90
2022-11-23T11:22:34.807Z,12.80
2022-11-23T11:25:39.368Z,9.15
2022-11-23T11:28:44.198Z,9.63
2022-11-23T11:31:52.963Z,8.32
2022-11-23T11:35:09.947Z,10.75
2022-11-23T11:38:19.390Z,12.98
2022-11-23T11:41:25.445Z,10.13
2022-11-23T11:44:32.617Z,9.85
2022-11-23T11:47:56.305Z,9.50
2022-11-23T11:51:20.549Z,8.90
2022-11-23T11:55:02.116Z,8.70
2022-11-23T11:58:14.237Z,9.63
2022-11-23T12:01:36.603Z,9.75
2022-11-23T12:04:53.701Z,11.00
2022-11-23T12:08:24.723Z,10.43
2022-11-23T12:11:28.281Z,9.68
2022-11-23T12:14:37.054Z,11.70
2022-11-23T12:17:57.452Z,10.52
2022-11-23T12:21:18.220Z,8.90
2022-11-23T12:24:42.445Z,9.05
2022-11-23T12:28:09.432Z,9.07
2022-11-23T12:31:15.068Z,7.95
2022-11-23T12:34:37.918Z,9.88
2022-11-23T12:38:08.028Z,8.95
2022-11-23T12:41:16.677Z,9.25
2022-11-23T12:44:48.182Z,7.55
2022-11-23T12:48:08.320Z,6.35
2022-11-23T12:51:48.404Z,12.67
2022-11-23T12:55:26.663Z,7.45
2022-11-23T12:58:32.183Z,8.00
2022-11-23T13:01:42.871Z,7.47
2022-11-23T13:05:03.558Z,7.47
2022-11-23T13:08:41.630Z,8.48
2022-11-23T13:11:47.029Z,8.20
2022-11-23T13:15:08.224Z,7.93
2022-11-23T13:18:46.797Z,7.70
2022-11-23T13:21:49.777Z,7.97
2022-11-23T13:25:19.577Z,7.35
2022-11-23T13:28:32.286Z,7.75
2022-11-23T13:31:36.132Z,8.30
2022-11-23T13:34:47.193Z,6.78
2022-11-23T13:38:01.802Z,10.43
2022-11-23T13:41:29.149Z,12.57
2022-11-23T13:44:35.231Z,11.10
2022-11-23T13:47:42.296Z,10.85
2022-11-23T13:50:49.177Z,8.68
2022-11-23T13:54:22.420Z,9.20
2022-11-23T13:57:25.362Z,10.55
2022-11-23T14:00:46.678Z,10.77
2022-11-23T14:03:51.243Z,10.98
2022-11-23T14:07:01.658Z,9.02
2022-11-23T14:10:17.517Z,8.85
2022-11-23T14:13:28.416Z,9.48
2022-11-23T14:20:07.648Z,8.40
2022-11-23T14:23:28.129Z,8.30
2022-11-23T14:26:34.348Z,11.00
2022-11-23T14:30:03.509Z,12.27
2022-11-23T14:33:28.440Z,14.32
2022-11-23T14:37:01.232Z,11.27
2022-11-23T14:40:27.502Z,10.73
2022-11-23T14:43:30.591Z,9.38
2022-11-23T14:46:33.134Z,11.38
2022-11-23T14:49:37.071Z,13.10
2022-11-23T14:52:39.515Z,9.07
2022-11-23T14:55:47.423Z,9.98
2022-11-23T14:58:50.839Z,10.07
2022-11-23T15:01:58.026Z,8.15
2022-11-23T15:05:19.171Z,11.50
2022-11-23T15:08:40.559Z,10.60
2022-11-23T15:11:43.129Z,8.88
2022-11-23T15:14:45.875Z,10.02
2022-11-23T15:18:02.373Z,9.90
2022-11-23T15:21:27.828Z,12.48
2022-11-23T15:24:33.794Z,11.43
2022-11-23T15:27:40.138Z,13.52
2022-11-23T15:30:42.653Z,11.18
2022-11-23T15:33:48.353Z,11.20
2022-11-23T15:36:51.682Z,11.57
2022-11-23T15:39:55.934Z,13.25
2022-11-23T15:42:58.514Z,13.57
2022-11-23T15:46:05.669Z,12.57
2022-11-23T15:49:15.011Z,12.25
2022-11-23T15:52:20.231Z,13.52
2022-11-23T15:55:23.393Z,10.40
2022-11-23T15:58:26.307Z,14.50
2022-11-23T16:01:29.775Z,12.45
2022-11-23T16:04:41.365Z,10.65
2022-11-23T16:11:02.641Z,10.15
2022-11-23T16:14:20.120Z,13.02
2022-11-23T16:17:26.021Z,14.27
2022-11-23T16:20:29.576Z,16.65
2022-11-23T16:23:45.877Z,19.83
2022-11-23T16:26:48.450Z,18.25
2022-11-23T16:29:53.171Z,18.85
2022-11-23T16:32:55.882Z,19.65
2022-11-23T16:35:58.750Z,20.35
